createdAt,value
2019-02-19T00:01:02.274Z,9.78
2019-02-19T00:03:30.472Z,9.70
2019-02-19T00:05:58.664Z,9.23
2019-02-19T00:08:26.867Z,9.68
2019-02-19T00:10:55.131Z,9.70
2019-02-19T00:13:23.341Z,9.45
2019-02-19T00:15:51.558Z,8.90
2019-02-19T00:18:20.838Z,9.45
2019-02-19T00:20:49.046Z,8.48
2019-02-19T00:23:17.251Z,9.20
2019-02-19T00:25:45.460Z,9.50
2019-02-19T00:28:13.642Z,9.40
2019-02-19T00:30:41.843Z,9.60
2019-02-19T00:33:10.038Z,9.37
2019-02-19T00:35:38.222Z,9.50
2019-02-19T00:38:06.458Z,9.88
2019-02-19T00:40:34.630Z,9.00
2019-02-19T00:43:02.823Z,8.90
2019-02-19T00:45:31.023Z,9.18
2019-02-19T00:47:59.253Z,9.60
2019-02-19T00:50:27.431Z,8.90
2019-02-19T00:52:55.635Z,9.23
2019-02-19T00:55:23.846Z,8.80
2019-02-19T00:57:52.030Z,9.40
2019-02-19T01:00:20.231Z,9.40
2019-02-19T01:02:48.427Z,8.98
2019-02-19T01:05:16.682Z,9.90
2019-02-19T01:07:44.967Z,8.90
2019-02-19T01:10:13.156Z,9.30
2019-02-19T01:12:41.350Z,9.10
2019-02-19T01:15:09.622Z,8.95
2019-02-19T01:17:37.827Z,9.65
2019-02-19T01:20:06.467Z,9.98
2019-02-19T01:22:34.727Z,9.35
2019-02-19T01:25:02.991Z,9.40
2019-02-19T01:27:31.182Z,9.98
2019-02-19T01:29:59.379Z,8.90
2019-02-19T01:32:27.570Z,9.53
2019-02-19T01:34:55.751Z,9.85
2019-02-19T01:37:23.942Z,9.48
2019-02-19T01:39:52.146Z,8.75
2019-02-19T01:42:20.335Z,9.37
2019-02-19T01:44:48.531Z,10.30
2019-02-19T01:47:17.709Z,9.40
2019-02-19T01:49:45.914Z,10.18
2019-02-19T01:52:14.106Z,10.23
2019-02-19T01:54:42.314Z,9.13
2019-02-19T01:57:10.503Z,9.55
2019-02-19T01:59:38.693Z,9.40
2019-02-19T02:02:06.903Z,10.72
2019-02-19T02:04:35.097Z,9.80
2019-02-19T02:07:04.558Z,10.03
2019-02-19T02:09:32.939Z,9.48
2019-02-19T02:12:01.130Z,9.50
2019-02-19T02:14:29.347Z,10.45
2019-02-19T02:16:57.535Z,10.60
2019-02-19T02:19:25.735Z,10.10
2019-02-19T02:21:53.940Z,10.30
2019-02-19T02:24:22.161Z,10.00
2019-02-19T02:26:50.347Z,10.28
2019-02-19T02:29:18.546Z,10.45
2019-02-19T02:31:46.739Z,9.83
2019-02-19T02:34:15.021Z,10.00
2019-02-19T02:36:43.211Z,9.60
2019-02-19T02:39:11.419Z,10.00
2019-02-19T02:41:39.619Z,9.80
2019-02-19T02:44:07.826Z,10.10
2019-02-19T02:46:36.014Z,10.08
2019-02-19T02:49:04.219Z,10.23
2019-02-19T02:51:32.408Z,10.50
2019-02-19T02:54:00.603Z,9.55
2019-02-19T02:56:29.776Z,11.30
2019-02-19T02:58:57.978Z,10.80
2019-02-19T03:01:26.171Z,10.30
2019-02-19T03:03:54.388Z,10.23
2019-02-19T03:06:45.136Z,10.70
2019-02-19T03:09:13.372Z,10.70
2019-02-19T03:11:41.562Z,10.80
2019-02-19T03:14:09.767Z,10.78
2019-02-19T03:16:37.967Z,10.80
2019-02-19T03:19:06.176Z,10.65
2019-02-19T03:21:34.384Z,10.90
2019-02-19T03:24:02.603Z,12.03
2019-02-19T03:26:30.812Z,11.33
2019-02-19T03:28:59.012Z,11.50
2019-02-19T03:31:27.208Z,12.05
2019-02-19T03:33:55.436Z,11.70
2019-02-19T03:36:23.612Z,12.00
2019-02-19T03:38:51.823Z,12.43
2019-02-19T03:41:20.035Z,12.10
2019-02-19T03:43:48.227Z,12.00
2019-02-19T03:46:16.427Z,13.28
2019-02-19T03:48:44.647Z,12.75
2019-02-19T03:51:12.839Z,12.78
2019-02-19T03:53:41.042Z,13.13
2019-02-19T03:56:09.311Z,12.80
2019-02-19T03:58:37.575Z,13.58
2019-02-19T04:01:05.811Z,13.35
2019-02-19T04:03:34.084Z,14.18
2019-02-19T04:06:02.318Z,14.10
2019-02-19T04:08:30.503Z,14.30
2019-02-19T04:10:58.707Z,15.55
2019-02-19T04:13:26.914Z,15.67
2019-02-19T04:15:55.119Z,14.87
2019-02-19T04:18:23.323Z,15.60
2019-02-19T04:20:51.540Z,15.30
2019-02-19T04:23:19.776Z,15.87
2019-02-19T04:25:48.008Z,16.42
2019-02-19T04:28:16.224Z,16.45
2019-02-19T04:30:44.422Z,17.13
2019-02-19T04:33:12.622Z,16.67
2019-02-19T04:35:40.866Z,17.73
2019-02-19T04:38:09.057Z,16.60
2019-02-19T04:40:37.256Z,17.65
2019-02-19T04:43:05.464Z,18.65
2019-02-19T04:45:33.675Z,19.50
2019-02-19T04:48:01.916Z,20.67
2019-02-19T04:50:30.202Z,20.17
2019-02-19T04:52:58.407Z,21.60
2019-02-19T04:55:26.602Z,22.63
2019-02-19T04:57:54.810Z,22.67
2019-02-19T05:00:23.022Z,22.30
2019-02-19T05:02:51.647Z,23.30
2019-02-19T05:05:20.074Z,22.37
2019-02-19T05:07:48.276Z,23.20
2019-02-19T05:10:16.535Z,23.30
2019-02-19T05:12:44.786Z,24.32
2019-02-19T05:15:12.994Z,24.07
2019-02-19T05:17:41.190Z,24.20
2019-02-19T05:20:10.456Z,24.23
2019-02-19T05:22:38.659Z,25.47
2019-02-19T05:25:06.946Z,24.45
2019-02-19T05:27:35.170Z,25.55
2019-02-19T05:30:03.658Z,27.50
2019-02-19T05:32:31.871Z,25.77
2019-02-19T05:35:00.075Z,26.90
2019-02-19T05:37:28.283Z,26.90
2019-02-19T05:39:56.559Z,27.47
2019-02-19T05:42:24.772Z,27.77
2019-02-19T05:44:53.007Z,27.87
2019-02-19T05:47:21.214Z,27.62
2019-02-19T05:49:49.433Z,27.05
2019-02-19T05:52:17.719Z,29.07
2019-02-19T05:54:46.007Z,28.35
2019-02-19T05:57:14.226Z,30.25
2019-02-19T05:59:42.431Z,28.30
2019-02-19T06:02:10.632Z,29.20
2019-02-19T06:04:38.835Z,28.75
2019-02-19T06:07:07.098Z,29.53
2019-02-19T06:09:35.295Z,29.50
2019-02-19T06:12:03.546Z,28.70
2019-02-19T06:14:31.759Z,27.30
2019-02-19T06:16:59.988Z,29.55
2019-02-19T06:19:28.193Z,28.57
2019-02-19T06:21:56.446Z,30.57
2019-02-19T06:24:24.680Z,30.80
2019-02-19T06:26:52.896Z,30.92
2019-02-19T06:29:21.103Z,30.25
2019-02-19T06:31:49.350Z,29.40
2019-02-19T06:34:17.599Z,29.80
2019-02-19T06:36:45.816Z,30.50
2019-02-19T06:39:14.015Z,28.47
2019-02-19T06:41:42.238Z,30.45
2019-02-19T06:44:10.443Z,29.65
2019-02-19T06:46:38.638Z,29.07
2019-02-19T06:49:06.832Z,29.17
2019-02-19T06:51:36.062Z,29.67
2019-02-19T06:54:04.264Z,29.20
2019-02-19T06:56:32.467Z,26.77
2019-02-19T06:59:00.658Z,27.13
2019-02-19T07:02:03.283Z,23.80
2019-02-19T07:04:35.903Z,24.50
2019-02-19T07:07:04.175Z,24.12
2019-02-19T07:09:32.492Z,24.40
2019-02-19T07:12:00.703Z,24.23
2019-02-19T07:14:28.894Z,24.17
2019-02-19T07:16:57.098Z,24.40
2019-02-19T07:19:26.287Z,23.77
2019-02-19T07:21:54.590Z,24.60
2019-02-19T07:24:22.786Z,24.80
2019-02-19T07:26:51.002Z,24.07
2019-02-19T07:29:19.203Z,24.50
2019-02-19T07:31:47.403Z,26.68
2019-02-19T07:34:16.267Z,26.40
2019-02-19T07:36:44.467Z,27.00
2019-02-19T07:39:12.714Z,27.42
2019-02-19T07:41:40.927Z,27.67
2019-02-19T07:44:10.197Z,27.97
2019-02-19T07:46:38.491Z,27.80
2019-02-19T07:49:06.682Z,28.20
2019-02-19T07:51:34.947Z,28.12
2019-02-19T07:54:04.233Z,26.70
2019-02-19T07:56:32.431Z,27.60
2019-02-19T07:59:00.637Z,28.62
2019-02-19T08:01:28.839Z,27.57
2019-02-19T08:03:57.039Z,28.10
2019-02-19T08:06:25.315Z,27.42
2019-02-19T08:08:53.691Z,27.67
2019-02-19T08:11:21.902Z,27.37
2019-02-19T08:13:50.103Z,28.33
2019-02-19T08:16:19.031Z,27.98
2019-02-19T08:18:47.418Z,27.80
2019-02-19T08:21:15.703Z,27.65
2019-02-19T08:23:43.902Z,26.35
2019-02-19T08:26:12.103Z,27.95
2019-02-19T08:28:40.407Z,26.65
2019-02-19T08:31:08.674Z,26.23
2019-02-19T08:33:36.891Z,26.95
2019-02-19T08:36:05.095Z,26.90
2019-02-19T08:38:33.300Z,26.25
2019-02-19T08:41:01.582Z,26.00
2019-02-19T08:43:29.910Z,25.80
2019-02-19T08:45:58.116Z,25.37
2019-02-19T08:48:26.324Z,25.72
2019-02-19T08:50:55.074Z,24.35
2019-02-19T08:53:24.311Z,24.70
2019-02-19T08:55:52.536Z,24.23
2019-02-19T08:58:20.743Z,25.33
2019-02-19T09:00:48.940Z,24.95
2019-02-19T09:03:17.176Z,25.40
2019-02-19T09:05:45.374Z,25.40
2019-02-19T09:08:13.655Z,25.60
2019-02-19T09:10:41.923Z,24.25
2019-02-19T09:13:10.164Z,24.47
2019-02-19T09:15:38.389Z,24.35
2019-02-19T09:18:06.598Z,23.70
2019-02-19T09:20:36.906Z,23.12
2019-02-19T09:23:05.314Z,23.23
2019-02-19T09:25:33.559Z,25.13
2019-02-19T09:28:02.023Z,25.92
2019-02-19T09:30:31.372Z,25.05
2019-02-19T09:32:59.739Z,24.35
2019-02-19T09:35:29.703Z,26.23
2019-02-19T09:38:03.629Z,23.70
2019-02-19T09:40:33.662Z,23.07
2019-02-19T09:43:01.914Z,22.97
2019-02-19T09:45:30.119Z,23.67
2019-02-19T09:48:01.138Z,22.40
2019-02-19T09:50:28.271Z,22.77
2019-02-19T09:52:59.891Z,22.40
2019-02-19T09:55:26.513Z,22.82
2019-02-19T09:57:55.157Z,22.55
2019-02-19T10:00:23.456Z,22.00
2019-02-19T10:02:51.687Z,22.20
2019-02-19T10:05:19.883Z,22.73
2019-02-19T10:07:48.099Z,22.45
2019-02-19T10:10:16.586Z,21.67
2019-02-19T10:12:44.808Z,21.33
2019-02-19T10:15:13.086Z,22.30
2019-02-19T10:17:41.294Z,21.95
2019-02-19T10:20:09.606Z,21.27
2019-02-19T10:22:38.066Z,21.53
2019-02-19T10:25:07.015Z,20.30
2019-02-19T10:27:35.241Z,20.97
2019-02-19T10:30:04.083Z,19.57
2019-02-19T10:32:33.811Z,20.33
2019-02-19T10:35:02.225Z,20.75
2019-02-19T10:37:31.639Z,18.37
2019-02-19T10:39:59.847Z,19.87
2019-02-19T10:42:28.171Z,16.57
2019-02-19T10:44:56.372Z,16.95
2019-02-19T10:47:24.675Z,16.50
2019-02-19T10:49:53.815Z,14.63
2019-02-19T10:52:22.304Z,14.10
2019-02-19T10:54:51.237Z,15.37
2019-02-19T10:57:19.535Z,16.17
2019-02-19T10:59:48.054Z,14.80
2019-02-19T11:02:16.291Z,15.30
2019-02-19T11:04:44.534Z,13.45
2019-02-19T11:07:12.780Z,13.32
2019-02-19T11:09:40.999Z,13.63
2019-02-19T11:12:09.278Z,13.60
2019-02-19T11:14:37.551Z,12.37
2019-02-19T11:17:05.755Z,11.30
2019-02-19T11:19:34.005Z,11.37
2019-02-19T11:22:02.282Z,12.33
2019-02-19T11:24:30.536Z,12.73
2019-02-19T11:26:58.779Z,11.12
2019-02-19T11:29:26.992Z,10.63
2019-02-19T11:31:55.238Z,9.83
2019-02-19T11:34:23.728Z,10.07
2019-02-19T11:36:52.163Z,10.80
2019-02-19T11:39:20.416Z,10.00
2019-02-19T11:41:48.690Z,9.90
2019-02-19T11:44:16.903Z,10.78
2019-02-19T11:46:45.220Z,9.60
2019-02-19T11:49:13.435Z,10.17
2019-02-19T11:51:41.865Z,10.18
2019-02-19T11:54:10.115Z,9.28
2019-02-19T11:56:38.323Z,9.43
2019-02-19T11:59:06.530Z,9.20
2019-02-19T12:01:34.740Z,10.05
2019-02-19T12:04:02.938Z,8.63
2019-02-19T12:06:32.116Z,8.88
2019-02-19T12:09:00.349Z,9.03
2019-02-19T12:11:28.531Z,9.15
2019-02-19T12:13:56.738Z,8.15
2019-02-19T12:16:24.947Z,9.30
2019-02-19T12:18:53.542Z,8.73
2019-02-19T12:21:21.803Z,8.90
2019-02-19T12:23:50.061Z,9.20
2019-02-19T12:26:18.275Z,8.50
2019-02-19T12:28:46.495Z,8.48
2019-02-19T12:31:14.699Z,8.65
2019-02-19T12:33:42.911Z,7.83
2019-02-19T12:36:11.103Z,9.20
2019-02-19T12:38:39.635Z,8.68
2019-02-19T12:41:08.991Z,8.03
2019-02-19T12:43:37.391Z,7.47
2019-02-19T12:46:05.599Z,8.20
2019-02-19T12:48:33.835Z,8.70
2019-02-19T12:51:02.078Z,7.50
2019-02-19T12:53:30.619Z,7.40
2019-02-19T12:55:58.815Z,7.60
2019-02-19T12:58:27.117Z,7.50
2019-02-19T13:00:55.355Z,8.40
2019-02-19T13:03:23.567Z,7.75
2019-02-19T13:05:51.842Z,7.37
2019-02-19T13:08:20.115Z,8.60
2019-02-19T13:10:48.324Z,7.80
2019-02-19T13:13:16.663Z,8.23
2019-02-19T13:15:44.948Z,7.37
2019-02-19T13:18:13.149Z,7.17
2019-02-19T13:20:41.375Z,7.50
2019-02-19T13:23:09.676Z,6.40
2019-02-19T13:25:38.065Z,7.03
2019-02-19T13:28:06.319Z,6.20
2019-02-19T13:30:34.716Z,7.03
2019-02-19T13:33:02.992Z,7.83
2019-02-19T13:35:31.371Z,7.10
2019-02-19T13:37:59.550Z,7.08
2019-02-19T13:40:27.878Z,6.40
2019-02-19T13:42:56.164Z,7.33
2019-02-19T13:45:24.408Z,6.67
2019-02-19T13:47:52.626Z,6.20
2019-02-19T13:50:20.934Z,5.83
2019-02-19T13:53:01.339Z,6.57
2019-02-19T13:55:32.958Z,6.93
2019-02-19T13:58:01.211Z,6.58
2019-02-19T14:00:32.407Z,6.47
2019-02-19T14:03:00.631Z,5.90
2019-02-19T14:05:28.935Z,6.80
2019-02-19T14:07:57.163Z,6.57
2019-02-19T14:10:25.384Z,7.30
2019-02-19T14:12:53.626Z,8.70
2019-02-19T14:15:46.118Z,6.22
2019-02-19T14:18:16.690Z,6.47
2019-02-19T14:20:56.729Z,6.87
2019-02-19T14:24:02.424Z,7.30
2019-02-19T14:26:41.183Z,6.87
2019-02-19T14:29:31.494Z,6.20
2019-02-19T14:32:20.998Z,7.28
2019-02-19T14:35:07.330Z,7.03
2019-02-19T14:37:54.244Z,6.37
2019-02-19T14:40:32.130Z,7.03
2019-02-19T14:43:14.293Z,7.93
2019-02-19T14:45:50.183Z,6.70
2019-02-19T14:48:30.256Z,7.13
2019-02-19T14:51:17.716Z,7.60
2019-02-19T14:53:55.887Z,7.45
2019-02-19T14:56:48.619Z,7.73
2019-02-19T14:59:46.701Z,8.10
2019-02-19T15:02:33.384Z,7.50
2019-02-19T15:05:18.051Z,7.57
2019-02-19T15:08:10.558Z,6.70
2019-02-19T15:11:10.070Z,7.65
2019-02-19T15:14:06.174Z,7.25
2019-02-19T15:16:52.920Z,7.28
2019-02-19T15:19:40.451Z,7.60
2019-02-19T15:22:17.757Z,7.47
2019-02-19T15:24:58.829Z,6.30
2019-02-19T15:27:58.718Z,7.50
2019-02-19T15:30:58.255Z,7.20
2019-02-19T15:33:51.779Z,6.47
2019-02-19T15:36:54.218Z,6.73
2019-02-19T15:39:40.376Z,7.10
2019-02-19T15:42:24.419Z,7.25
2019-02-19T15:45:04.906Z,6.70
2019-02-19T15:47:46.110Z,7.10
2019-02-19T15:50:42.666Z,7.80
2019-02-19T15:53:24.953Z,6.70
2019-02-19T15:56:17.976Z,7.35
2019-02-19T15:59:04.153Z,7.27
2019-02-19T16:01:40.459Z,7.10
2019-02-19T16:04:16.842Z,7.50
2019-02-19T16:06:53.131Z,7.70
2019-02-19T16:09:45.537Z,7.50
2019-02-19T16:12:25.404Z,7.33
2019-02-19T16:15:16.056Z,9.05
2019-02-19T16:18:03.719Z,9.28
2019-02-19T16:20:55.130Z,7.73
2019-02-19T16:23:51.479Z,7.83
2019-02-19T16:26:40.017Z,8.30
2019-02-19T16:29:27.421Z,7.47
2019-02-19T16:32:05.663Z,7.95
2019-02-19T16:34:49.607Z,8.28
2019-02-19T16:37:28.014Z,7.27
2019-02-19T16:40:27.864Z,8.55
2019-02-19T16:43:04.121Z,10.23
2019-02-19T16:45:40.251Z,7.40
2019-02-19T16:48:30.522Z,7.45
2019-02-19T16:51:05.576Z,6.83
2019-02-19T16:53:47.389Z,6.60
2019-02-19T16:56:26.090Z,6.97
2019-02-19T16:59:19.258Z,6.47
2019-02-19T17:02:12.820Z,6.78
2019-02-19T17:04:58.976Z,6.83
2019-02-19T17:07:55.348Z,7.00
2019-02-19T17:10:32.551Z,6.35
2019-02-19T17:13:12.204Z,5.87
2019-02-19T17:15:51.719Z,5.10
2019-02-19T17:18:36.203Z,4.77
2019-02-19T17:21:11.618Z,5.30
2019-02-19T17:23:45.847Z,5.30
2019-02-19T17:26:40.124Z,5.77
2019-02-19T17:29:17.739Z,5.10
2019-02-19T17:32:03.956Z,4.67
2019-02-19T17:34:52.067Z,5.00
2019-02-19T17:37:35.099Z,5.23
2019-02-19T17:40:14.679Z,5.80
2019-02-19T17:42:57.640Z,6.05
2019-02-19T17:45:43.751Z,6.30
2019-02-19T17:48:30.015Z,5.80
2019-02-19T17:51:26.339Z,7.50
2019-02-19T17:54:12.414Z,6.90
2019-02-19T17:57:04.885Z,7.10
2019-02-19T17:59:57.928Z,6.70
2019-02-19T18:02:48.291Z,6.37
2019-02-19T18:05:26.201Z,5.90
2019-02-19T18:08:12.448Z,5.50
2019-02-19T18:11:12.288Z,4.90
2019-02-19T18:14:01.200Z,4.90
2019-02-19T18:16:36.757Z,4.37
2019-02-19T18:19:09.252Z,4.05
2019-02-19T18:21:37.820Z,4.00
2019-02-19T18:24:06.191Z,3.50
2019-02-19T18:26:34.603Z,3.33
2019-02-19T18:29:02.897Z,3.70
2019-02-19T18:31:31.316Z,3.30
2019-02-19T18:33:59.708Z,3.63
2019-02-19T18:36:27.993Z,3.70
2019-02-19T18:38:56.378Z,3.75
2019-02-19T18:41:24.797Z,3.47
2019-02-19T18:43:53.179Z,3.98
2019-02-19T18:46:21.443Z,3.97
2019-02-19T18:48:49.698Z,4.40
2019-02-19T18:51:17.971Z,3.98
2019-02-19T18:53:46.635Z,4.33
2019-02-19T18:56:14.952Z,4.30
2019-02-19T18:58:44.227Z,4.65
2019-02-19T19:01:12.461Z,4.50
2019-02-19T19:03:40.639Z,5.00
2019-02-19T19:06:08.955Z,4.67
2019-02-19T19:08:37.247Z,5.77
2019-02-19T19:11:05.548Z,5.58
2019-02-19T19:13:33.990Z,5.53
2019-02-19T19:16:02.332Z,5.90
2019-02-19T19:18:31.737Z,5.60
2019-02-19T19:21:07.729Z,5.83
2019-02-19T19:23:29.967Z,5.77
2019-02-19T19:25:58.231Z,6.67
2019-02-19T19:28:26.418Z,6.53
2019-02-19T19:30:54.699Z,6.60
2019-02-19T19:33:23.157Z,5.80
2019-02-19T19:35:51.385Z,7.22
2019-02-19T19:38:19.660Z,6.83
2019-02-19T19:40:47.872Z,7.30
2019-02-19T19:43:16.167Z,8.55
2019-02-19T19:45:44.492Z,8.23
2019-02-19T19:48:12.892Z,7.77
2019-02-19T19:50:41.147Z,8.70
2019-02-19T19:53:09.376Z,8.43
2019-02-19T19:55:37.790Z,8.48
2019-02-19T19:58:06.147Z,8.40
2019-02-19T20:00:34.536Z,8.00
2019-02-19T20:03:02.916Z,7.73
2019-02-19T20:05:31.195Z,7.70
2019-02-19T20:07:59.479Z,7.20
2019-02-19T20:10:27.687Z,8.00
2019-02-19T20:12:55.995Z,8.00
2019-02-19T20:15:24.295Z,7.60
2019-02-19T20:17:52.532Z,8.08
2019-02-19T20:20:20.764Z,7.40
2019-02-19T20:22:49.022Z,7.95
2019-02-19T20:25:17.223Z,7.33
2019-02-19T20:27:45.483Z,7.87
2019-02-19T20:30:13.811Z,7.50
2019-02-19T20:32:42.040Z,7.73
2019-02-19T20:35:10.378Z,7.00
2019-02-19T20:37:39.752Z,6.80
2019-02-19T20:40:07.984Z,7.80
2019-02-19T20:42:36.195Z,7.45
2019-02-19T20:45:04.737Z,7.62
2019-02-19T20:47:34.508Z,7.83
2019-02-19T20:50:02.821Z,7.80
2019-02-19T20:52:31.526Z,7.22
2019-02-19T20:54:59.745Z,6.75
2019-02-19T20:57:28.003Z,6.83
2019-02-19T20:59:56.197Z,7.25
2019-02-19T21:02:24.507Z,7.15
2019-02-19T21:04:52.843Z,6.27
2019-02-19T21:07:21.591Z,6.97
2019-02-19T21:09:49.798Z,7.23
2019-02-19T21:12:18.129Z,6.83
2019-02-19T21:14:46.432Z,6.97
2019-02-19T21:17:14.730Z,6.40
2019-02-19T21:19:43.105Z,6.43
2019-02-19T21:22:11.352Z,6.43
2019-02-19T21:24:39.756Z,5.60
2019-02-19T21:27:08.071Z,5.00
2019-02-19T21:29:36.757Z,4.90
2019-02-19T21:32:04.970Z,5.33
2019-02-19T21:34:33.464Z,5.20
2019-02-19T21:37:01.995Z,4.73
2019-02-19T21:39:31.418Z,4.17
2019-02-19T21:41:59.607Z,5.15
2019-02-19T21:44:27.930Z,5.62
2019-02-19T21:46:56.132Z,5.50
2019-02-19T21:49:24.430Z,5.50
2019-02-19T21:51:54.362Z,5.25
2019-02-19T21:54:25.899Z,4.80
2019-02-19T21:56:54.154Z,4.90
2019-02-19T21:59:22.439Z,5.60
2019-02-19T22:01:50.655Z,4.83
2019-02-19T22:04:18.958Z,4.50
2019-02-19T22:06:47.238Z,4.27
2019-02-19T22:09:15.455Z,4.30
2019-02-19T22:11:43.834Z,4.72
2019-02-19T22:14:12.054Z,4.60
2019-02-19T22:16:41.287Z,4.40
2019-02-19T22:19:09.483Z,4.90
2019-02-19T22:22:03.499Z,5.00
2019-02-19T22:24:37.772Z,4.80
2019-02-19T22:27:06.479Z,4.90
2019-02-19T22:29:34.735Z,5.17
2019-02-19T22:32:03.324Z,5.37
2019-02-19T22:34:31.522Z,5.40
2019-02-19T22:36:59.711Z,5.30
2019-02-19T22:39:27.907Z,5.83
2019-02-19T22:41:56.096Z,5.60
2019-02-19T22:44:24.300Z,5.75
2019-02-19T22:46:52.505Z,5.10
2019-02-19T22:49:20.707Z,5.93
2019-02-19T22:51:48.987Z,5.25
2019-02-19T22:54:45.243Z,5.05
2019-02-19T22:57:13.452Z,5.67
2019-02-19T22:59:41.656Z,5.17
2019-02-19T23:02:16.094Z,5.70
2019-02-19T23:04:45.364Z,5.70
2019-02-19T23:07:13.556Z,5.62
2019-02-19T23:09:41.762Z,5.60
2019-02-19T23:12:09.963Z,6.00
2019-02-19T23:14:39.811Z,6.25
2019-02-19T23:17:07.994Z,5.75
2019-02-19T23:19:36.199Z,5.30
2019-02-19T23:22:04.422Z,6.45
2019-02-19T23:24:32.618Z,6.30
2019-02-19T23:27:00.823Z,5.12
2019-02-19T23:29:29.266Z,6.87
2019-02-19T23:31:57.479Z,6.40
2019-02-19T23:34:25.670Z,6.60
2019-02-19T23:37:04.803Z,6.40
2019-02-19T23:39:33.005Z,6.28
2019-02-19T23:42:01.194Z,6.40
2019-02-19T23:44:29.382Z,6.40
2019-02-19T23:46:57.659Z,7.37
2019-02-19T23:49:25.851Z,6.40
2019-02-19T23:51:54.062Z,6.87
2019-02-19T23:54:22.250Z,6.20
2019-02-19T23:56:50.446Z,6.58
2019-02-19T23:59:18.722Z,7.67
